METAR Analyzer

一覧表示

Hello, Guest. (Login)

ZBAA/PEK  -  北京首都

観測日時
2021-01-27 01:00 (UTC) (38分前)
気温
-4
露点
-11
湿数
7
相対湿度
58.2%
QNH
1024hPa
推定現地気圧
1019.8hPa
推定海面気圧
1024.3hPa
体感温度
-11.2
(無風時)
2.3
HI
-6.8
気温前日比
±0
体感温度前日比
+3.4
HI前日比
-0.9
水平視程
>10000m
鉛直視程
データなし
雲底高度
No dense clouds
V/I
VMC (VFR)
RVR
No RVR data
卓越風
2m/s from 10°
ガスト
No gust
降水
報告なし
その他の天気
報告なし
報告なし

ZBAA 270100Z 01002MPS CAVOK M04/M11 Q1024 NOSIG

ZSPD/PVG  -  上海浦東

観測日時
2021-01-27 01:00 (UTC) (38分前)
気温
8
露点
4
湿数
4
相対湿度
75.8%
QNH
1025hPa
推定現地気圧
1024.5hPa
推定海面気圧
1025.0hPa
体感温度
-3.3
(無風時)
11
HI
6.8
気温前日比
-2
体感温度前日比
-4.2
HI前日比
-2.7
水平視程
6000m
鉛直視程
データなし
雲底高度
データなし
V/I
判定不可
RVR
No RVR data
卓越風
5m/s from 10°
ガスト
No gust
降水
報告なし
その他の天気
NSC
報告なし

ZSPD 270100Z 01005MPS 6000 NSC 08/04 Q1025 NOSIG

ZSSS/SHA  -  上海虹橋

観測日時
2021-01-27 01:00 (UTC) (38分前)
気温
7
露点
4
湿数
3
相対湿度
81.2%
QNH
1026hPa
推定現地気圧
1025.6hPa
推定海面気圧
1026.0hPa
体感温度
-2.4
(無風時)
10.2
HI
5.9
気温前日比
-2
体感温度前日比
-0.6
HI前日比
-2.5
水平視程
5000m
鉛直視程
データなし
雲底高度
データなし
V/I
判定不可
RVR
No RVR data
卓越風
3m/s from 360°
ガスト
No gust
降水
報告なし
その他の天気
もや / NSC
報告なし

ZSSS 270100Z 36003MPS 5000 BR NSC 07/04 Q1026 NOSIG

ZSAM/XMN  -  アモイ/廈門高崎

観測日時
2021-01-27 01:00 (UTC) (38分前)
気温
16
露点
10
湿数
6
相対湿度
67.5%
QNH
1021hPa
推定現地気圧
1018.8hPa
推定海面気圧
1021.0hPa
体感温度
7.1
(無風時)
17.3
HI
15.4
気温前日比
-1
体感温度前日比
-6.2
HI前日比
-1.2
水平視程
>10000m
鉛直視程
データなし
雲底高度
2700ft AGL
V/I
VMC (VFR)
RVR
No RVR data
卓越風
5m/s from 70°
ガスト
No gust
降水
報告なし
その他の天気
報告なし
隙間のある雲 @ 2700ft AGL

ZSAM 270100Z 07005MPS 9999 BKN027 16/10 Q1021 NOSIG

ZGSZ/SZX  -  深圳宝安

観測日時
2021-01-27 01:00 (UTC) (38分前)
気温
19
露点
11
湿数
8
相対湿度
59.7%
QNH
1020hPa
推定現地気圧
1019.5hPa
推定海面気圧
1020.0hPa
体感温度
11.4
(無風時)
19.3
HI
18.5
気温前日比
±0
体感温度前日比
-2.4
HI前日比
-0.8
水平視程
>10000m
鉛直視程
データなし
雲底高度
No dense clouds
V/I
VMC (VFR)
RVR
No RVR data
卓越風
4m/s from 60° (30° ~ 90°)
ガスト
No gust
降水
報告なし
その他の天気
報告なし
報告なし

ZGSZ 270100Z 06004MPS 030V090 CAVOK 19/11 Q1020 NOSIG

VHHH/HKG  -  香港

観測日時
2021-01-27 01:00 (UTC) (38分前)
気温
18
露点
14
湿数
4
相対湿度
77.4%
QNH
1019hPa
推定現地気圧
1017.9hPa
推定海面気圧
1019.0hPa
体感温度
11.7
(無風時)
19.2
HI
17.9
気温前日比
-1
体感温度前日比
-2
HI前日比
-1.2
水平視程
7000m
鉛直視程
データなし
雲底高度
No dense clouds
V/I
VMC (VFR)
RVR
No RVR data
卓越風
5kt from 60°
ガスト
No gust
降水
報告なし
その他の天気
報告なし
少しの雲 @ 3000ft AGL

VHHH 270100Z 06005KT 7000 FEW030 18/14 Q1019 NOSIG

RCTP/TPE  -  台湾桃園

観測日時
2021-01-27 01:00 (UTC) (38分前)
気温
18
露点
14
湿数
4
相対湿度
77.4%
QNH
1020.0hPa
推定現地気圧
1016.0hPa
推定海面気圧
1019.9hPa
体感温度
8.6
(無風時)
19.2
HI
17.9
気温前日比
±0
体感温度前日比
-2.6
HI前日比
-0.3
水平視程
>10000m
鉛直視程
データなし
雲底高度
2500ft AGL
V/I
VMC (VFR)
RVR
No RVR data
卓越風
14kt from 30°
ガスト
No gust
降水
報告なし
その他の天気
報告なし
少しの雲 @ 1000ft AGL / 散在する雲 @ 2000ft AGL / 隙間のある雲 @ 2500ft AGL

RCTP 270100Z 03014KT 9999 FEW010 SCT020 BKN025 18/14 Q1020 NOSIG RMK A3012

RCSS/TSA  -  台北松山

観測日時
2021-01-27 01:14 (UTC) (24分前)
気温
19
露点
17
湿数
2
相対湿度
88.2%
QNH
1020.0hPa
推定現地気圧
1019.4hPa
推定海面気圧
1020.0hPa
体感温度
10
(無風時)
20.3
HI
19.3
気温前日比
データなし
体感温度前日比
データなし
HI前日比
データなし
水平視程
>10000m
鉛直視程
データなし
雲底高度
2800ft AGL
V/I
VMC (VFR)
RVR
No RVR data
卓越風
14kt from 90°
ガスト
No gust
降水
弱い雨
その他の天気
報告なし
少しの雲 @ 800ft AGL / 隙間のある雲 @ 2800ft AGL / 隙間のある雲 @ 5000ft AGL

RCSS 270114Z 09014KT 9999 -RA FEW008 BKN028 BKN050 19/17 Q1020 NOSIG RMK A3012

RCKH/KHH  -  高雄

観測日時
2021-01-27 01:10 (UTC) (28分前)
気温
20
露点
16
湿数
4
相対湿度
77.8%
QNH
1017.6hPa
推定現地気圧
1016.5hPa
推定海面気圧
1017.6hPa
体感温度
14.8
(無風時)
20.8
HI
20.1
気温前日比
-2
体感温度前日比
-2.6
HI前日比
-2
水平視程
2000m / 一時 3000m
鉛直視程
データなし
雲底高度
1500ft AGL
V/I
SVMC (SVFR)
RVR
No RVR data
卓越風
4kt from 40° (350° ~ 70°)
ガスト
No gust
降水
報告なし
その他の天気
煙霧
その他の天気 (一時)
煙霧
散在する雲 @ 1000ft AGL / 隙間のある雲 @ 1500ft AGL / 隙間のある雲 @ 3000ft AGL

RCKH 270110Z 04004KT 350V070 2000 HZ SCT010 BKN015 BKN030 20/16 Q1017 TEMPO 3000 HZ RMK A3005

158.3msec